sensor_id;sensor_type;location;lat;lon;timestamp;temperature;humidity
17994;DHT22;9122;48.406;9.984;2023-04-25T00:01:33;10.80;83.80
17994;DHT22;9122;48.406;9.984;2023-04-25T00:04:20;10.70;83.80
17994;DHT22;9122;48.406;9.984;2023-04-25T00:07:05;10.70;83.80
17994;DHT22;9122;48.406;9.984;2023-04-25T00:09:50;10.70;83.90
17994;DHT22;9122;48.406;9.984;2023-04-25T00:12:34;10.70;84.00
17994;DHT22;9122;48.406;9.984;2023-04-25T00:15:19;10.70;83.80
17994;DHT22;9122;48.406;9.984;2023-04-25T00:18:04;10.60;83.80
17994;DHT22;9122;48.406;9.984;2023-04-25T00:20:49;10.60;84.10
17994;DHT22;9122;48.406;9.984;2023-04-25T00:23:34;10.60;84.20
17994;DHT22;9122;48.406;9.984;2023-04-25T00:26:20;10.70;84.10
17994;DHT22;9122;48.406;9.984;2023-04-25T00:29:07;10.60;83.90
17994;DHT22;9122;48.406;9.984;2023-04-25T00:31:51;10.60;84.00
17994;DHT22;9122;48.406;9.984;2023-04-25T00:34:35;10.60;84.10
17994;DHT22;9122;48.406;9.984;2023-04-25T00:37:19;10.60;84.10
17994;DHT22;9122;48.406;9.984;2023-04-25T00:40:08;10.60;84.30
17994;DHT22;9122;48.406;9.984;2023-04-25T00:42:53;10.60;84.30
17994;DHT22;9122;48.406;9.984;2023-04-25T00:45:39;10.60;83.90
17994;DHT22;9122;48.406;9.984;2023-04-25T00:48:23;10.50;83.70
17994;DHT22;9122;48.406;9.984;2023-04-25T00:51:07;10.50;83.80
17994;DHT22;9122;48.406;9.984;2023-04-25T00:53:53;10.50;83.70
17994;DHT22;9122;48.406;9.984;2023-04-25T00:56:38;10.50;83.70
17994;DHT22;9122;48.406;9.984;2023-04-25T00:59:22;10.50;83.80
17994;DHT22;9122;48.406;9.984;2023-04-25T01:02:07;10.50;83.80
17994;DHT22;9122;48.406;9.984;2023-04-25T01:04:53;10.50;83.80
17994;DHT22;9122;48.406;9.984;2023-04-25T01:07:38;10.40;83.60
17994;DHT22;9122;48.406;9.984;2023-04-25T01:10:22;10.50;83.90
17994;DHT22;9122;48.406;9.984;2023-04-25T01:13:07;10.40;83.80
17994;DHT22;9122;48.406;9.984;2023-04-25T01:15:52;10.40;83.80
17994;DHT22;9122;48.406;9.984;2023-04-25T01:18:38;10.40;83.90
17994;DHT22;9122;48.406;9.984;2023-04-25T01:21:24;10.40;84.00
17994;DHT22;9122;48.406;9.984;2023-04-25T01:24:12;10.40;84.10
17994;DHT22;9122;48.406;9.984;2023-04-25T01:26:58;10.40;84.30
17994;DHT22;9122;48.406;9.984;2023-04-25T01:29:42;10.40;84.40
17994;DHT22;9122;48.406;9.984;2023-04-25T01:32:27;10.30;85.10
17994;DHT22;9122;48.406;9.984;2023-04-25T01:35:12;10.40;84.40
17994;DHT22;9122;48.406;9.984;2023-04-25T01:37:56;10.40;84.60
17994;DHT22;9122;48.406;9.984;2023-04-25T01:40:41;10.30;84.60
17994;DHT22;9122;48.406;9.984;2023-04-25T01:43:26;10.30;84.60
17994;DHT22;9122;48.406;9.984;2023-04-25T01:46:11;10.30;84.90
17994;DHT22;9122;48.406;9.984;2023-04-25T01:48:56;10.30;85.00
17994;DHT22;9122;48.406;9.984;2023-04-25T01:51:40;10.30;85.40
17994;DHT22;9122;48.406;9.984;2023-04-25T01:54:25;10.20;85.70
17994;DHT22;9122;48.406;9.984;2023-04-25T01:57:11;10.20;86.00
17994;DHT22;9122;48.406;9.984;2023-04-25T02:00:00;10.20;86.00
17994;DHT22;9122;48.406;9.984;2023-04-25T02:02:45;10.20;86.20
17994;DHT22;9122;48.406;9.984;2023-04-25T02:05:35;10.20;86.20
17994;DHT22;9122;48.406;9.984;2023-04-25T02:08:20;10.20;86.10
17994;DHT22;9122;48.406;9.984;2023-04-25T02:11:04;10.10;86.10
17994;DHT22;9122;48.406;9.984;2023-04-25T02:13:49;10.10;86.40
17994;DHT22;9122;48.406;9.984;2023-04-25T02:16:33;10.10;86.50
17994;DHT22;9122;48.406;9.984;2023-04-25T02:19:19;10.10;86.60
17994;DHT22;9122;48.406;9.984;2023-04-25T02:22:03;10.10;86.80
17994;DHT22;9122;48.406;9.984;2023-04-25T02:24:48;10.10;87.10
17994;DHT22;9122;48.406;9.984;2023-04-25T02:27:32;10.10;87.00
17994;DHT22;9122;48.406;9.984;2023-04-25T02:30:16;10.00;87.00
17994;DHT22;9122;48.406;9.984;2023-04-25T02:33:01;10.10;87.20
17994;DHT22;9122;48.406;9.984;2023-04-25T02:35:45;10.00;87.40
17994;DHT22;9122;48.406;9.984;2023-04-25T02:38:29;10.00;87.70
17994;DHT22;9122;48.406;9.984;2023-04-25T02:41:14;10.00;87.60
17994;DHT22;9122;48.406;9.984;2023-04-25T02:43:58;10.00;87.40
17994;DHT22;9122;48.406;9.984;2023-04-25T02:46:43;10.00;87.40
17994;DHT22;9122;48.406;9.984;2023-04-25T02:49:27;10.00;87.40
17994;DHT22;9122;48.406;9.984;2023-04-25T02:52:12;9.90;87.50
17994;DHT22;9122;48.406;9.984;2023-04-25T02:55:00;10.00;87.90
17994;DHT22;9122;48.406;9.984;2023-04-25T02:57:44;10.00;88.10
17994;DHT22;9122;48.406;9.984;2023-04-25T03:00:28;9.90;88.20
17994;DHT22;9122;48.406;9.984;2023-04-25T03:03:12;9.90;88.40
17994;DHT22;9122;48.406;9.984;2023-04-25T03:05:57;9.90;88.60
17994;DHT22;9122;48.406;9.984;2023-04-25T03:08:41;9.90;88.70
17994;DHT22;9122;48.406;9.984;2023-04-25T03:11:26;9.80;88.90
17994;DHT22;9122;48.406;9.984;2023-04-25T03:14:10;9.80;89.10
17994;DHT22;9122;48.406;9.984;2023-04-25T03:16:54;9.80;89.30
17994;DHT22;9122;48.406;9.984;2023-04-25T03:19:38;9.80;89.20
17994;DHT22;9122;48.406;9.984;2023-04-25T03:22:23;9.80;89.30
17994;DHT22;9122;48.406;9.984;2023-04-25T03:25:08;9.80;89.50
17994;DHT22;9122;48.406;9.984;2023-04-25T03:27:53;9.80;90.20
17994;DHT22;9122;48.406;9.984;2023-04-25T03:30:37;9.70;89.70
17994;DHT22;9122;48.406;9.984;2023-04-25T03:33:21;9.70;90.00
17994;DHT22;9122;48.406;9.984;2023-04-25T03:36:06;9.70;90.20
17994;DHT22;9122;48.406;9.984;2023-04-25T03:38:50;9.70;90.40
17994;DHT22;9122;48.406;9.984;2023-04-25T03:41:34;9.60;90.40
17994;DHT22;9122;48.406;9.984;2023-04-25T03:44:18;9.60;90.50
17994;DHT22;9122;48.406;9.984;2023-04-25T03:47:03;9.60;90.70
17994;DHT22;9122;48.406;9.984;2023-04-25T03:49:47;9.70;90.90
17994;DHT22;9122;48.406;9.984;2023-04-25T03:52:33;9.60;90.90
17994;DHT22;9122;48.406;9.984;2023-04-25T03:55:18;9.60;91.00
17994;DHT22;9122;48.406;9.984;2023-04-25T03:58:02;9.60;91.10
17994;DHT22;9122;48.406;9.984;2023-04-25T04:00:47;9.60;91.10
17994;DHT22;9122;48.406;9.984;2023-04-25T04:03:31;9.60;91.30
17994;DHT22;9122;48.406;9.984;2023-04-25T04:06:16;9.60;91.40
17994;DHT22;9122;48.406;9.984;2023-04-25T04:09:00;9.60;91.40
17994;DHT22;9122;48.406;9.984;2023-04-25T04:11:45;9.50;91.30
17994;DHT22;9122;48.406;9.984;2023-04-25T04:14:29;9.50;91.30
17994;DHT22;9122;48.406;9.984;2023-04-25T04:17:14;9.50;91.20
17994;DHT22;9122;48.406;9.984;2023-04-25T04:19:58;9.50;91.30
17994;DHT22;9122;48.406;9.984;2023-04-25T04:22:43;9.50;91.40
17994;DHT22;9122;48.406;9.984;2023-04-25T04:25:27;9.40;91.50
17994;DHT22;9122;48.406;9.984;2023-04-25T04:28:12;9.50;91.60
17994;DHT22;9122;48.406;9.984;2023-04-25T04:30:57;9.40;91.50
17994;DHT22;9122;48.406;9.984;2023-04-25T04:33:42;9.50;91.60
17994;DHT22;9122;48.406;9.984;2023-04-25T04:36:26;9.40;91.60
17994;DHT22;9122;48.406;9.984;2023-04-25T04:39:12;9.40;91.70
17994;DHT22;9122;48.406;9.984;2023-04-25T04:41:57;9.40;91.70
17994;DHT22;9122;48.406;9.984;2023-04-25T04:44:41;9.40;91.70
17994;DHT22;9122;48.406;9.984;2023-04-25T04:47:28;9.40;91.70
17994;DHT22;9122;48.406;9.984;2023-04-25T04:50:16;9.40;91.70
17994;DHT22;9122;48.406;9.984;2023-04-25T04:53:02;9.40;91.70
17994;DHT22;9122;48.406;9.984;2023-04-25T04:55:46;9.40;91.70
17994;DHT22;9122;48.406;9.984;2023-04-25T04:58:30;9.40;91.60
17994;DHT22;9122;48.406;9.984;2023-04-25T05:01:15;9.40;91.70
17994;DHT22;9122;48.406;9.984;2023-04-25T05:04:00;9.40;91.70
17994;DHT22;9122;48.406;9.984;2023-04-25T05:06:44;9.40;92.00
17994;DHT22;9122;48.406;9.984;2023-04-25T05:09:29;9.40;92.20
17994;DHT22;9122;48.406;9.984;2023-04-25T05:12:13;9.30;92.40
17994;DHT22;9122;48.406;9.984;2023-04-25T05:14:58;9.30;92.50
17994;DHT22;9122;48.406;9.984;2023-04-25T05:17:42;9.30;92.70
17994;DHT22;9122;48.406;9.984;2023-04-25T05:20:27;9.30;92.80
17994;DHT22;9122;48.406;9.984;2023-04-25T05:23:11;9.30;93.10
17994;DHT22;9122;48.406;9.984;2023-04-25T05:25:56;9.30;93.40
17994;DHT22;9122;48.406;9.984;2023-04-25T05:28:41;9.30;93.50
17994;DHT22;9122;48.406;9.984;2023-04-25T05:31:26;9.30;93.50
17994;DHT22;9122;48.406;9.984;2023-04-25T05:34:10;9.20;93.50
17994;DHT22;9122;48.406;9.984;2023-04-25T05:36:56;9.20;93.60
17994;DHT22;9122;48.406;9.984;2023-04-25T05:39:40;9.20;93.60
17994;DHT22;9122;48.406;9.984;2023-04-25T05:42:24;9.20;93.70
17994;DHT22;9122;48.406;9.984;2023-04-25T05:45:08;9.70;93.80
17994;DHT22;9122;48.406;9.984;2023-04-25T05:47:53;9.30;93.70
17994;DHT22;9122;48.406;9.984;2023-04-25T05:50:38;9.30;93.80
17994;DHT22;9122;48.406;9.984;2023-04-25T05:53:22;9.30;93.70
17994;DHT22;9122;48.406;9.984;2023-04-25T05:56:07;9.30;93.70
17994;DHT22;9122;48.406;9.984;2023-04-25T05:58:52;9.40;93.70
17994;DHT22;9122;48.406;9.984;2023-04-25T06:01:37;9.40;93.70
17994;DHT22;9122;48.406;9.984;2023-04-25T06:04:21;9.30;93.60
17994;DHT22;9122;48.406;9.984;2023-04-25T06:07:05;9.40;93.40
17994;DHT22;9122;48.406;9.984;2023-04-25T06:09:50;9.40;93.40
17994;DHT22;9122;48.406;9.984;2023-04-25T06:12:35;9.40;93.40
17994;DHT22;9122;48.406;9.984;2023-04-25T06:15:19;9.40;93.40
17994;DHT22;9122;48.406;9.984;2023-04-25T06:18:04;9.50;93.40
17994;DHT22;9122;48.406;9.984;2023-04-25T06:20:48;9.50;93.30
17994;DHT22;9122;48.406;9.984;2023-04-25T06:23:33;9.60;93.30
17994;DHT22;9122;48.406;9.984;2023-04-25T06:26:17;9.70;93.30
17994;DHT22;9122;48.406;9.984;2023-04-25T06:29:02;9.80;93.10
17994;DHT22;9122;48.406;9.984;2023-04-25T06:31:47;9.90;92.70
17994;DHT22;9122;48.406;9.984;2023-04-25T06:34:31;9.90;92.40
17994;DHT22;9122;48.406;9.984;2023-04-25T06:37:15;10.00;92.10
17994;DHT22;9122;48.406;9.984;2023-04-25T06:40:00;10.10;91.80
17994;DHT22;9122;48.406;9.984;2023-04-25T06:42:44;10.10;91.80
17994;DHT22;9122;48.406;9.984;2023-04-25T06:45:29;10.10;91.60
17994;DHT22;9122;48.406;9.984;2023-04-25T06:48:13;10.20;91.50
17994;DHT22;9122;48.406;9.984;2023-04-25T06:50:58;10.30;91.40
17994;DHT22;9122;48.406;9.984;2023-04-25T06:53:42;10.40;91.40
17994;DHT22;9122;48.406;9.984;2023-04-25T06:56:28;10.50;91.30
17994;DHT22;9122;48.406;9.984;2023-04-25T06:59:14;10.70;90.90
17994;DHT22;9122;48.406;9.984;2023-04-25T07:01:59;10.80;90.70
17994;DHT22;9122;48.406;9.984;2023-04-25T07:04:43;10.90;90.60
17994;DHT22;9122;48.406;9.984;2023-04-25T07:07:30;11.00;90.10
17994;DHT22;9122;48.406;9.984;2023-04-25T07:10:15;11.10;89.50
17994;DHT22;9122;48.406;9.984;2023-04-25T07:12:59;11.20;89.00
17994;DHT22;9122;48.406;9.984;2023-04-25T07:15:44;11.30;88.90
17994;DHT22;9122;48.406;9.984;2023-04-25T07:18:28;11.20;88.60
17994;DHT22;9122;48.406;9.984;2023-04-25T07:21:13;11.20;88.50
17994;DHT22;9122;48.406;9.984;2023-04-25T07:23:58;11.20;88.90
17994;DHT22;9122;48.406;9.984;2023-04-25T07:26:42;11.20;88.00
17994;DHT22;9122;48.406;9.984;2023-04-25T07:29:28;11.20;87.60
17994;DHT22;9122;48.406;9.984;2023-04-25T07:32:12;11.10;87.10
17994;DHT22;9122;48.406;9.984;2023-04-25T07:34:57;11.10;86.80
17994;DHT22;9122;48.406;9.984;2023-04-25T07:37:42;11.10;87.00
17994;DHT22;9122;48.406;9.984;2023-04-25T07:40:27;11.30;87.30
17994;DHT22;9122;48.406;9.984;2023-04-25T07:43:11;11.10;87.50
17994;DHT22;9122;48.406;9.984;2023-04-25T07:45:58;11.10;88.30
17994;DHT22;9122;48.406;9.984;2023-04-25T07:48:43;11.20;89.50
17994;DHT22;9122;48.406;9.984;2023-04-25T07:51:27;11.10;90.10
17994;DHT22;9122;48.406;9.984;2023-04-25T07:54:15;11.10;90.30
17994;DHT22;9122;48.406;9.984;2023-04-25T07:56:59;11.20;90.50
17994;DHT22;9122;48.406;9.984;2023-04-25T07:59:44;11.20;90.80
17994;DHT22;9122;48.406;9.984;2023-04-25T08:02:29;11.20;90.70
17994;DHT22;9122;48.406;9.984;2023-04-25T08:05:13;11.20;90.50
17994;DHT22;9122;48.406;9.984;2023-04-25T08:07:59;11.20;90.30
17994;DHT22;9122;48.406;9.984;2023-04-25T08:10:43;11.20;90.30
17994;DHT22;9122;48.406;9.984;2023-04-25T08:13:27;11.20;90.30
17994;DHT22;9122;48.406;9.984;2023-04-25T08:16:12;11.20;90.40
17994;DHT22;9122;48.406;9.984;2023-04-25T08:18:58;11.20;90.50
17994;DHT22;9122;48.406;9.984;2023-04-25T08:21:42;11.20;90.40
17994;DHT22;9122;48.406;9.984;2023-04-25T08:24:27;11.20;90.30
17994;DHT22;9122;48.406;9.984;2023-04-25T08:27:11;11.20;90.00
17994;DHT22;9122;48.406;9.984;2023-04-25T08:29:56;11.30;89.40
17994;DHT22;9122;48.406;9.984;2023-04-25T08:32:42;11.30;89.00
17994;DHT22;9122;48.406;9.984;2023-04-25T08:35:26;11.30;88.50
17994;DHT22;9122;48.406;9.984;2023-04-25T08:38:11;11.30;88.10
17994;DHT22;9122;48.406;9.984;2023-04-25T08:40:57;11.30;87.80
17994;DHT22;9122;48.406;9.984;2023-04-25T08:43:43;11.30;87.80
17994;DHT22;9122;48.406;9.984;2023-04-25T08:46:28;11.30;87.30
17994;DHT22;9122;48.406;9.984;2023-04-25T08:49:15;11.30;87.00
17994;DHT22;9122;48.406;9.984;2023-04-25T08:52:02;11.30;86.90
17994;DHT22;9122;48.406;9.984;2023-04-25T08:54:51;11.30;87.70
17994;DHT22;9122;48.406;9.984;2023-04-25T08:57:37;11.40;88.80
17994;DHT22;9122;48.406;9.984;2023-04-25T09:00:22;11.40;89.10
17994;DHT22;9122;48.406;9.984;2023-04-25T09:03:06;11.30;89.00
17994;DHT22;9122;48.406;9.984;2023-04-25T09:08:37;11.30;88.70
17994;DHT22;9122;48.406;9.984;2023-04-25T09:11:24;11.30;89.70
17994;DHT22;9122;48.406;9.984;2023-04-25T09:14:18;11.30;89.80
17994;DHT22;9122;48.406;9.984;2023-04-25T09:17:05;11.30;89.50
17994;DHT22;9122;48.406;9.984;2023-04-25T09:19:51;11.40;89.90
17994;DHT22;9122;48.406;9.984;2023-04-25T09:22:36;11.30;90.40
17994;DHT22;9122;48.406;9.984;2023-04-25T09:25:21;11.30;90.90
17994;DHT22;9122;48.406;9.984;2023-04-25T09:28:06;11.30;91.40
17994;DHT22;9122;48.406;9.984;2023-04-25T09:30:55;11.40;91.70
17994;DHT22;9122;48.406;9.984;2023-04-25T09:33:41;11.40;91.60
17994;DHT22;9122;48.406;9.984;2023-04-25T09:36:27;11.40;91.90
17994;DHT22;9122;48.406;9.984;2023-04-25T09:39:12;11.40;92.20
17994;DHT22;9122;48.406;9.984;2023-04-25T09:42:02;11.40;92.10
17994;DHT22;9122;48.406;9.984;2023-04-25T09:44:47;11.40;92.20
17994;DHT22;9122;48.406;9.984;2023-04-25T09:47:31;11.30;92.20
17994;DHT22;9122;48.406;9.984;2023-04-25T09:50:17;11.30;92.30
17994;DHT22;9122;48.406;9.984;2023-04-25T09:53:03;11.10;92.00
17994;DHT22;9122;48.406;9.984;2023-04-25T09:55:50;11.00;92.10
17994;DHT22;9122;48.406;9.984;2023-04-25T09:58:36;10.90;92.40
17994;DHT22;9122;48.406;9.984;2023-04-25T10:01:21;10.90;92.70
17994;DHT22;9122;48.406;9.984;2023-04-25T10:04:12;10.80;93.00
17994;DHT22;9122;48.406;9.984;2023-04-25T10:06:59;10.70;93.10
17994;DHT22;9122;48.406;9.984;2023-04-25T10:09:48;10.70;93.20
17994;DHT22;9122;48.406;9.984;2023-04-25T10:12:34;10.60;93.20
17994;DHT22;9122;48.406;9.984;2023-04-25T10:15:19;10.60;93.10
17994;DHT22;9122;48.406;9.984;2023-04-25T10:18:05;10.60;93.40
17994;DHT22;9122;48.406;9.984;2023-04-25T10:20:50;11.00;93.90
17994;DHT22;9122;48.406;9.984;2023-04-25T10:23:35;10.50;93.60
17994;DHT22;9122;48.406;9.984;2023-04-25T10:26:21;10.50;93.80
17994;DHT22;9122;48.406;9.984;2023-04-25T10:29:06;10.50;93.90
17994;DHT22;9122;48.406;9.984;2023-04-25T10:31:51;10.50;94.00
17994;DHT22;9122;48.406;9.984;2023-04-25T10:34:39;10.40;94.00
17994;DHT22;9122;48.406;9.984;2023-04-25T10:37:24;10.40;94.10
17994;DHT22;9122;48.406;9.984;2023-04-25T10:40:10;10.40;93.90
17994;DHT22;9122;48.406;9.984;2023-04-25T10:42:55;10.40;94.00
17994;DHT22;9122;48.406;9.984;2023-04-25T10:45:52;10.40;94.10
17994;DHT22;9122;48.406;9.984;2023-04-25T10:48:37;10.30;93.80
17994;DHT22;9122;48.406;9.984;2023-04-25T10:54:17;10.30;94.10
17994;DHT22;9122;48.406;9.984;2023-04-25T10:57:02;10.30;94.40
17994;DHT22;9122;48.406;9.984;2023-04-25T10:59:46;10.30;94.50
17994;DHT22;9122;48.406;9.984;2023-04-25T11:02:31;10.30;94.30
17994;DHT22;9122;48.406;9.984;2023-04-25T11:05:34;10.30;94.40
17994;DHT22;9122;48.406;9.984;2023-04-25T11:08:37;10.30;94.80
17994;DHT22;9122;48.406;9.984;2023-04-25T11:11:29;10.30;95.00
17994;DHT22;9122;48.406;9.984;2023-04-25T11:14:13;10.40;95.20
17994;DHT22;9122;48.406;9.984;2023-04-25T11:16:58;10.40;95.20
17994;DHT22;9122;48.406;9.984;2023-04-25T11:19:43;10.40;95.10
17994;DHT22;9122;48.406;9.984;2023-04-25T11:22:28;10.40;94.70
17994;DHT22;9122;48.406;9.984;2023-04-25T11:25:15;10.40;94.40
17994;DHT22;9122;48.406;9.984;2023-04-25T11:28:00;10.40;94.10
17994;DHT22;9122;48.406;9.984;2023-04-25T11:30:48;10.40;94.20
17994;DHT22;9122;48.406;9.984;2023-04-25T11:33:34;10.40;94.60
17994;DHT22;9122;48.406;9.984;2023-04-25T11:36:19;10.40;94.40
17994;DHT22;9122;48.406;9.984;2023-04-25T11:39:04;10.40;94.40
17994;DHT22;9122;48.406;9.984;2023-04-25T11:41:50;10.40;94.50
17994;DHT22;9122;48.406;9.984;2023-04-25T11:44:34;10.40;94.50
17994;DHT22;9122;48.406;9.984;2023-04-25T11:47:19;10.40;94.50
17994;DHT22;9122;48.406;9.984;2023-04-25T11:50:04;10.40;94.70
17994;DHT22;9122;48.406;9.984;2023-04-25T11:52:49;10.40;94.80
17994;DHT22;9122;48.406;9.984;2023-04-25T11:55:34;10.40;94.50
17994;DHT22;9122;48.406;9.984;2023-04-25T11:58:20;10.40;94.30
17994;DHT22;9122;48.406;9.984;2023-04-25T12:01:04;10.40;94.20
17994;DHT22;9122;48.406;9.984;2023-04-25T12:03:49;10.40;94.10
17994;DHT22;9122;48.406;9.984;2023-04-25T12:06:37;10.40;94.20
17994;DHT22;9122;48.406;9.984;2023-04-25T12:09:32;10.40;94.50
17994;DHT22;9122;48.406;9.984;2023-04-25T12:12:16;10.40;94.80
17994;DHT22;9122;48.406;9.984;2023-04-25T12:15:28;10.40;94.90
17994;DHT22;9122;48.406;9.984;2023-04-25T12:18:12;10.50;94.80
17994;DHT22;9122;48.406;9.984;2023-04-25T12:21:00;10.50;94.70
17994;DHT22;9122;48.406;9.984;2023-04-25T12:23:45;10.50;94.70
17994;DHT22;9122;48.406;9.984;2023-04-25T12:29:33;10.50;94.50
17994;DHT22;9122;48.406;9.984;2023-04-25T12:32:18;10.60;94.60
17994;DHT22;9122;48.406;9.984;2023-04-25T12:35:03;10.60;94.80
17994;DHT22;9122;48.406;9.984;2023-04-25T12:37:48;10.60;94.70
17994;DHT22;9122;48.406;9.984;2023-04-25T12:40:32;10.50;94.50
17994;DHT22;9122;48.406;9.984;2023-04-25T12:43:16;10.50;94.50
17994;DHT22;9122;48.406;9.984;2023-04-25T12:46:01;10.50;94.30
17994;DHT22;9122;48.406;9.984;2023-04-25T12:48:46;10.50;94.20
17994;DHT22;9122;48.406;9.984;2023-04-25T12:51:30;10.50;94.30
17994;DHT22;9122;48.406;9.984;2023-04-25T12:54:19;10.50;94.50
17994;DHT22;9122;48.406;9.984;2023-04-25T12:57:04;10.50;94.50
17994;DHT22;9122;48.406;9.984;2023-04-25T12:59:48;10.50;94.40
17994;DHT22;9122;48.406;9.984;2023-04-25T13:02:32;10.50;94.40
17994;DHT22;9122;48.406;9.984;2023-04-25T13:05:17;10.50;94.40
17994;DHT22;9122;48.406;9.984;2023-04-25T13:08:01;10.50;94.50
17994;DHT22;9122;48.406;9.984;2023-04-25T13:10:47;10.50;94.30
17994;DHT22;9122;48.406;9.984;2023-04-25T13:13:31;10.50;94.20
17994;DHT22;9122;48.406;9.984;2023-04-25T13:16:16;10.50;94.00
17994;DHT22;9122;48.406;9.984;2023-04-25T13:19:01;10.50;93.60
17994;DHT22;9122;48.406;9.984;2023-04-25T13:21:45;10.60;93.60
17994;DHT22;9122;48.406;9.984;2023-04-25T13:24:29;10.50;93.50
17994;DHT22;9122;48.406;9.984;2023-04-25T13:27:13;10.50;93.30
17994;DHT22;9122;48.406;9.984;2023-04-25T13:29:59;10.50;93.50
17994;DHT22;9122;48.406;9.984;2023-04-25T13:32:44;10.50;93.50
17994;DHT22;9122;48.406;9.984;2023-04-25T13:35:29;10.60;93.70
17994;DHT22;9122;48.406;9.984;2023-04-25T13:38:13;10.60;93.20
17994;DHT22;9122;48.406;9.984;2023-04-25T13:41:00;10.60;93.30
17994;DHT22;9122;48.406;9.984;2023-04-25T13:43:46;10.60;92.90
17994;DHT22;9122;48.406;9.984;2023-04-25T13:46:31;10.60;92.80
17994;DHT22;9122;48.406;9.984;2023-04-25T13:49:15;10.70;92.90
17994;DHT22;9122;48.406;9.984;2023-04-25T13:52:00;10.70;93.00
17994;DHT22;9122;48.406;9.984;2023-04-25T13:54:44;10.70;92.80
17994;DHT22;9122;48.406;9.984;2023-04-25T13:57:32;10.70;92.70
17994;DHT22;9122;48.406;9.984;2023-04-25T14:00:17;10.70;92.40
17994;DHT22;9122;48.406;9.984;2023-04-25T14:03:01;10.80;92.20
17994;DHT22;9122;48.406;9.984;2023-04-25T14:05:49;10.80;91.90
17994;DHT22;9122;48.406;9.984;2023-04-25T14:08:34;10.80;91.80
17994;DHT22;9122;48.406;9.984;2023-04-25T14:11:19;10.80;91.60
17994;DHT22;9122;48.406;9.984;2023-04-25T14:14:04;10.80;91.30
17994;DHT22;9122;48.406;9.984;2023-04-25T14:16:49;10.70;91.30
17994;DHT22;9122;48.406;9.984;2023-04-25T14:19:34;10.70;91.40
17994;DHT22;9122;48.406;9.984;2023-04-25T14:22:19;10.70;91.30
17994;DHT22;9122;48.406;9.984;2023-04-25T14:25:03;10.70;91.30
17994;DHT22;9122;48.406;9.984;2023-04-25T14:27:49;10.80;91.20
17994;DHT22;9122;48.406;9.984;2023-04-25T14:30:33;10.80;91.20
17994;DHT22;9122;48.406;9.984;2023-04-25T14:33:18;10.80;91.20
17994;DHT22;9122;48.406;9.984;2023-04-25T14:36:02;10.90;91.40
17994;DHT22;9122;48.406;9.984;2023-04-25T14:38:47;10.90;91.50
17994;DHT22;9122;48.406;9.984;2023-04-25T14:41:31;11.00;91.20
17994;DHT22;9122;48.406;9.984;2023-04-25T14:44:16;11.00;90.80
17994;DHT22;9122;48.406;9.984;2023-04-25T14:47:00;11.10;90.40
17994;DHT22;9122;48.406;9.984;2023-04-25T14:49:45;11.10;90.20
17994;DHT22;9122;48.406;9.984;2023-04-25T14:52:35;11.20;90.20
17994;DHT22;9122;48.406;9.984;2023-04-25T14:55:19;11.20;89.50
17994;DHT22;9122;48.406;9.984;2023-04-25T14:58:04;11.20;89.00
17994;DHT22;9122;48.406;9.984;2023-04-25T15:00:49;11.30;89.30
17994;DHT22;9122;48.406;9.984;2023-04-25T15:03:33;11.30;89.10
17994;DHT22;9122;48.406;9.984;2023-04-25T15:06:18;11.30;88.90
17994;DHT22;9122;48.406;9.984;2023-04-25T15:09:02;11.30;89.00
17994;DHT22;9122;48.406;9.984;2023-04-25T15:11:47;11.30;88.60
17994;DHT22;9122;48.406;9.984;2023-04-25T15:14:32;11.30;88.50
17994;DHT22;9122;48.406;9.984;2023-04-25T15:17:17;11.30;88.50
17994;DHT22;9122;48.406;9.984;2023-04-25T15:20:01;11.40;88.20
17994;DHT22;9122;48.406;9.984;2023-04-25T15:22:46;11.40;88.10
17994;DHT22;9122;48.406;9.984;2023-04-25T15:25:32;11.40;88.10
17994;DHT22;9122;48.406;9.984;2023-04-25T15:28:17;11.40;87.60
17994;DHT22;9122;48.406;9.984;2023-04-25T15:31:02;11.50;87.40
17994;DHT22;9122;48.406;9.984;2023-04-25T15:33:47;11.50;87.20
17994;DHT22;9122;48.406;9.984;2023-04-25T15:36:31;11.50;86.80
17994;DHT22;9122;48.406;9.984;2023-04-25T15:39:16;11.50;87.10
17994;DHT22;9122;48.406;9.984;2023-04-25T15:42:03;11.50;87.20
17994;DHT22;9122;48.406;9.984;2023-04-25T15:44:47;11.50;87.30
17994;DHT22;9122;48.406;9.984;2023-04-25T15:47:33;11.50;87.30
17994;DHT22;9122;48.406;9.984;2023-04-25T15:50:18;11.50;87.30
17994;DHT22;9122;48.406;9.984;2023-04-25T15:53:02;11.50;87.30
17994;DHT22;9122;48.406;9.984;2023-04-25T15:55:47;11.50;87.60
17994;DHT22;9122;48.406;9.984;2023-04-25T15:58:31;11.50;87.60
17994;DHT22;9122;48.406;9.984;2023-04-25T16:01:16;11.50;86.30
17994;DHT22;9122;48.406;9.984;2023-04-25T16:04:00;11.50;85.70
17994;DHT22;9122;48.406;9.984;2023-04-25T16:06:45;11.50;85.70
17994;DHT22;9122;48.406;9.984;2023-04-25T16:09:30;11.50;85.80
17994;DHT22;9122;48.406;9.984;2023-04-25T16:12:14;11.50;86.60
17994;DHT22;9122;48.406;9.984;2023-04-25T16:14:58;11.50;86.80
17994;DHT22;9122;48.406;9.984;2023-04-25T16:17:43;11.60;86.70
17994;DHT22;9122;48.406;9.984;2023-04-25T16:20:28;11.50;85.70
17994;DHT22;9122;48.406;9.984;2023-04-25T16:23:12;11.50;85.00
17994;DHT22;9122;48.406;9.984;2023-04-25T16:25:57;11.50;85.40
17994;DHT22;9122;48.406;9.984;2023-04-25T16:28:42;11.50;85.30
17994;DHT22;9122;48.406;9.984;2023-04-25T16:31:26;11.50;85.10
17994;DHT22;9122;48.406;9.984;2023-04-25T16:34:11;11.50;84.70
17994;DHT22;9122;48.406;9.984;2023-04-25T16:36:56;11.50;84.50
17994;DHT22;9122;48.406;9.984;2023-04-25T16:39:40;11.50;84.60
17994;DHT22;9122;48.406;9.984;2023-04-25T16:42:24;11.50;84.60
17994;DHT22;9122;48.406;9.984;2023-04-25T16:45:08;11.70;84.70
17994;DHT22;9122;48.406;9.984;2023-04-25T16:47:54;11.50;84.60
17994;DHT22;9122;48.406;9.984;2023-04-25T16:50:39;11.50;84.40
17994;DHT22;9122;48.406;9.984;2023-04-25T16:53:23;11.50;84.20
17994;DHT22;9122;48.406;9.984;2023-04-25T16:56:08;11.50;84.20
17994;DHT22;9122;48.406;9.984;2023-04-25T16:58:53;11.50;84.00
17994;DHT22;9122;48.406;9.984;2023-04-25T17:01:37;11.50;84.00
17994;DHT22;9122;48.406;9.984;2023-04-25T17:04:22;11.40;83.80
17994;DHT22;9122;48.406;9.984;2023-04-25T17:07:07;11.40;83.60
17994;DHT22;9122;48.406;9.984;2023-04-25T17:09:51;11.40;83.80
17994;DHT22;9122;48.406;9.984;2023-04-25T17:12:36;11.40;83.90
17994;DHT22;9122;48.406;9.984;2023-04-25T17:15:21;11.30;83.80
17994;DHT22;9122;48.406;9.984;2023-04-25T17:18:05;11.30;84.20
17994;DHT22;9122;48.406;9.984;2023-04-25T17:20:50;11.30;84.30
17994;DHT22;9122;48.406;9.984;2023-04-25T17:23:35;11.20;84.10
17994;DHT22;9122;48.406;9.984;2023-04-25T17:26:20;11.30;84.30
17994;DHT22;9122;48.406;9.984;2023-04-25T17:29:05;11.20;84.40
17994;DHT22;9122;48.406;9.984;2023-04-25T17:31:49;11.20;84.50
17994;DHT22;9122;48.406;9.984;2023-04-25T17:34:34;11.20;84.40
17994;DHT22;9122;48.406;9.984;2023-04-25T17:37:20;11.20;84.30
17994;DHT22;9122;48.406;9.984;2023-04-25T17:40:06;11.20;84.60
17994;DHT22;9122;48.406;9.984;2023-04-25T17:42:54;11.20;85.00
17994;DHT22;9122;48.406;9.984;2023-04-25T17:45:39;11.20;85.00
17994;DHT22;9122;48.406;9.984;2023-04-25T17:48:24;11.20;85.00
17994;DHT22;9122;48.406;9.984;2023-04-25T17:51:09;11.20;85.00
17994;DHT22;9122;48.406;9.984;2023-04-25T17:53:54;11.20;85.00